createdAt,value
2023-01-19T00:01:32.172Z,98365.78
2023-01-19T00:04:03.556Z,98355.47
2023-01-19T00:06:30.336Z,98355.44
2023-01-19T00:08:56.882Z,98361.34
2023-01-19T00:11:23.726Z,98351.09
2023-01-19T00:13:53.693Z,98358.66
2023-01-19T00:16:21.736Z,98353.59
2023-01-19T00:18:50.475Z,98353.72
2023-01-19T00:21:21.548Z,98350.81
2023-01-19T00:23:52.618Z,98351.94
2023-01-19T00:26:21.870Z,98352.53
2023-01-19T00:28:51.081Z,98350.00
2023-01-19T00:31:20.537Z,98353.53
2023-01-19T00:33:49.239Z,98345.72
2023-01-19T00:36:16.680Z,98347.41
2023-01-19T00:38:43.277Z,98362.38
2023-01-19T00:41:12.593Z,98360.59
2023-01-19T00:43:39.019Z,98358.31
2023-01-19T00:46:07.943Z,98351.50
2023-01-19T00:48:36.954Z,98356.72
2023-01-19T00:51:03.679Z,98353.34
2023-01-19T00:53:34.835Z,98341.50
2023-01-19T00:56:01.429Z,98339.38
2023-01-19T00:58:30.417Z,98342.81
2023-01-19T01:01:03.670Z,98343.75
2023-01-19T01:03:30.815Z,98338.81
2023-01-19T01:05:57.474Z,98339.66
2023-01-19T01:08:24.345Z,98337.69
2023-01-19T01:10:56.681Z,98342.94
2023-01-19T01:13:26.179Z,98338.66
2023-01-19T01:15:57.734Z,98333.47
2023-01-19T01:18:25.113Z,98344.34
2023-01-19T01:21:00.302Z,98346.91
2023-01-19T01:23:26.841Z,98352.69
2023-01-19T01:25:55.609Z,98352.53
2023-01-19T01:28:22.470Z,98347.25
2023-01-19T01:30:53.961Z,98349.75
2023-01-19T01:33:39.884Z,98350.06
2023-01-19T01:36:11.735Z,98340.50
2023-01-19T01:38:41.875Z,98350.38
2023-01-19T01:41:09.136Z,98339.63
2023-01-19T01:43:46.742Z,98345.72
2023-01-19T01:46:17.229Z,98340.75
2023-01-19T01:48:50.453Z,98345.84
2023-01-19T01:51:47.308Z,98355.13
2023-01-19T01:54:25.510Z,98350.97
2023-01-19T01:56:55.923Z,98357.44
2023-01-19T01:59:27.216Z,98369.44
2023-01-19T02:02:16.461Z,98379.31
2023-01-19T02:04:58.551Z,98384.63
2023-01-19T02:08:13.145Z,98398.75
2023-01-19T02:11:01.632Z,98384.22
2023-01-19T02:13:35.300Z,98380.84
2023-01-19T02:16:08.093Z,98358.00
2023-01-19T02:18:35.887Z,98317.97
2023-01-19T02:21:12.299Z,98317.97
2023-01-19T02:23:55.931Z,98341.53
2023-01-19T02:26:29.331Z,98350.38
2023-01-19T02:29:02.603Z,98370.81
2023-01-19T02:31:33.986Z,98384.25
2023-01-19T02:34:05.916Z,98387.41
2023-01-19T02:36:53.856Z,98376.97
2023-01-19T02:39:28.314Z,98361.16
2023-01-19T02:42:04.455Z,98354.22
2023-01-19T02:44:35.630Z,98351.81
2023-01-19T02:47:05.033Z,98338.88
2023-01-19T02:49:31.840Z,98326.50
2023-01-19T02:52:01.828Z,98314.31
2023-01-19T02:54:44.704Z,98329.41
2023-01-19T02:57:29.733Z,98349.03
2023-01-19T03:00:10.930Z,98351.50
2023-01-19T03:03:11.448Z,98363.25
2023-01-19T03:05:50.378Z,98361.41
2023-01-19T03:08:22.638Z,98365.56
2023-01-19T03:11:06.766Z,98356.91
2023-01-19T03:13:39.230Z,98367.97
2023-01-19T03:16:11.616Z,98390.06
2023-01-19T03:18:43.009Z,98383.31
2023-01-19T03:21:14.269Z,98388.50
2023-01-19T03:23:47.941Z,98387.41
2023-01-19T03:26:18.922Z,98373.22
2023-01-19T03:28:47.632Z,98359.66
2023-01-19T03:31:17.757Z,98342.53
2023-01-19T03:33:50.926Z,98326.81
2023-01-19T03:36:29.482Z,98317.44
2023-01-19T03:38:58.939Z,98292.53
2023-01-19T03:41:27.715Z,98284.25
2023-01-19T03:44:00.294Z,98295.66
2023-01-19T03:46:31.498Z,98304.84
2023-01-19T03:49:01.009Z,98312.47
2023-01-19T03:51:28.080Z,98319.09
2023-01-19T03:53:57.019Z,98316.38
2023-01-19T03:56:28.335Z,98312.06
2023-01-19T03:58:56.285Z,98320.44
2023-01-19T04:01:26.487Z,98342.63
2023-01-19T04:03:58.507Z,98356.28
2023-01-19T04:06:30.207Z,98370.34
2023-01-19T04:08:56.866Z,98343.16
2023-01-19T04:11:25.869Z,98355.75
2023-01-19T04:13:52.496Z,98375.25
2023-01-19T04:16:21.182Z,98376.06
2023-01-19T04:18:50.766Z,98377.66
2023-01-19T04:21:17.524Z,98369.28
2023-01-19T04:23:47.512Z,98360.66
2023-01-19T04:26:14.175Z,98355.53
2023-01-19T04:28:43.125Z,98357.28
2023-01-19T04:31:12.598Z,98348.97
2023-01-19T04:33:41.874Z,98342.66
2023-01-19T04:36:11.013Z,98338.63
2023-01-19T04:38:37.888Z,98348.78
2023-01-19T04:41:04.678Z,98337.84
2023-01-19T04:43:31.472Z,98329.03
2023-01-19T04:46:00.779Z,98331.78
2023-01-19T04:48:27.583Z,98328.28
2023-01-19T04:50:54.192Z,98316.44
2023-01-19T04:53:20.902Z,98334.38
2023-01-19T04:55:47.788Z,98350.81
2023-01-19T04:58:14.469Z,98354.34
2023-01-19T05:00:41.212Z,98362.66
2023-01-19T05:03:07.887Z,98363.75
2023-01-19T05:05:34.565Z,98378.88
2023-01-19T05:08:01.434Z,98372.16
2023-01-19T05:10:28.210Z,98367.91
2023-01-19T05:12:57.435Z,98350.03
2023-01-19T05:15:24.156Z,98349.94
2023-01-19T05:17:53.374Z,98372.25
2023-01-19T05:20:20.192Z,98384.75
2023-01-19T05:22:53.929Z,98395.81
2023-01-19T05:26:18.160Z,98406.41
2023-01-19T05:28:50.496Z,98400.50
2023-01-19T05:31:19.928Z,98407.44
2023-01-19T05:37:41.078Z,98410.75
2023-01-19T05:40:09.233Z,98413.59
2023-01-19T05:42:39.609Z,98394.91
2023-01-19T05:45:07.221Z,98394.19
2023-01-19T05:47:34.072Z,98397.59
2023-01-19T05:50:03.492Z,98379.19
2023-01-19T05:52:30.121Z,98386.88
2023-01-19T05:54:59.037Z,98389.38
2023-01-19T05:57:30.936Z,98374.16
2023-01-19T05:59:57.560Z,98358.78
2023-01-19T06:02:28.868Z,98362.31
2023-01-19T06:04:58.146Z,98369.28
2023-01-19T06:07:29.043Z,98364.16
2023-01-19T06:09:55.967Z,98373.56
2023-01-19T06:46:04.969Z,98393.28
2023-01-19T09:02:43.475Z,98425.28
2023-01-19T09:05:12.502Z,98421.50
2023-01-19T09:07:39.153Z,98418.22
2023-01-19T09:10:09.232Z,98420.44
2023-01-19T09:12:38.301Z,98409.44
2023-01-19T09:15:05.613Z,98409.78
2023-01-19T09:17:32.367Z,98429.94
2023-01-19T09:20:01.538Z,98443.84
2023-01-19T09:22:33.502Z,98438.75
2023-01-19T09:25:01.573Z,98442.16
2023-01-19T09:27:32.949Z,98430.38
2023-01-19T09:29:59.597Z,98433.06
2023-01-19T09:32:31.232Z,98431.78
2023-01-19T09:34:58.061Z,98438.84
2023-01-19T09:37:26.908Z,98435.38
2023-01-19T09:39:55.953Z,98433.09
2023-01-19T09:42:22.739Z,98438.69
2023-01-19T09:44:55.752Z,98431.22
2023-01-19T09:47:27.335Z,98425.16
2023-01-19T09:50:05.238Z,98447.31
2023-01-19T09:52:36.145Z,98447.53
2023-01-19T09:55:03.202Z,98434.53
2023-01-19T09:57:30.316Z,98443.97
2023-01-19T09:59:59.916Z,98447.38
2023-01-19T10:02:35.697Z,98442.94
2023-01-19T10:05:21.780Z,98441.75
2023-01-19T10:08:03.488Z,98454.50
2023-01-19T10:10:37.807Z,98460.44
2023-01-19T10:13:51.846Z,98453.59
2023-01-19T10:16:42.613Z,98460.56
2023-01-19T10:19:27.184Z,98468.03
2023-01-19T10:22:01.706Z,98457.66
2023-01-19T10:25:00.537Z,98458.66
2023-01-19T10:27:34.243Z,98457.13
2023-01-19T10:30:04.149Z,98447.03
2023-01-19T10:32:38.558Z,98454.06
2023-01-19T10:35:21.600Z,98454.94
2023-01-19T10:37:56.076Z,98459.59
2023-01-19T10:40:44.252Z,98464.75
2023-01-19T10:43:37.484Z,98475.47
2023-01-19T10:46:38.700Z,98476.66
2023-01-19T10:49:21.156Z,98480.59
2023-01-19T10:51:50.232Z,98482.59
2023-01-19T10:54:17.336Z,98479.09
2023-01-19T10:56:52.807Z,98489.97
2023-01-19T10:59:50.662Z,98487.53
2023-01-19T11:02:31.227Z,98480.00
2023-01-19T11:04:59.496Z,98485.88
2023-01-19T11:07:25.995Z,98485.38
2023-01-19T11:10:11.683Z,98480.03
2023-01-19T11:12:48.070Z,98476.59
2023-01-19T11:15:33.234Z,98475.28
2023-01-19T11:18:00.605Z,98462.22
2023-01-19T11:20:43.919Z,98466.03
2023-01-19T11:23:51.246Z,98465.44
2023-01-19T11:26:35.688Z,98466.59
2023-01-19T11:29:04.467Z,98459.66
2023-01-19T11:31:34.758Z,98465.38
2023-01-19T11:34:05.608Z,98467.16
2023-01-19T11:36:35.707Z,98475.69
2023-01-19T11:39:28.450Z,98476.59
2023-01-19T11:42:04.891Z,98477.50
2023-01-19T11:44:35.438Z,98463.44
2023-01-19T11:47:17.371Z,98469.53
2023-01-19T11:49:53.212Z,98468.53
2023-01-19T11:52:43.228Z,98475.97
2023-01-19T11:55:24.346Z,98475.91
2023-01-19T11:57:54.487Z,98488.50
2023-01-19T12:00:29.820Z,98488.34
2023-01-19T12:03:09.285Z,98484.25
2023-01-19T12:05:43.224Z,98490.22
2023-01-19T12:08:20.883Z,98494.56
2023-01-19T12:10:55.988Z,98500.38
2023-01-19T12:13:30.537Z,98510.34
2023-01-19T12:16:09.422Z,98515.09
2023-01-19T12:18:44.645Z,98507.66
2023-01-19T12:21:11.300Z,98513.13
2023-01-19T12:23:46.304Z,98522.25
2023-01-19T12:26:34.728Z,98535.00
2023-01-19T12:29:08.073Z,98537.38
2023-01-19T12:31:35.204Z,98534.03
2023-01-19T12:34:23.767Z,98544.13
2023-01-19T12:36:50.878Z,98541.53
2023-01-19T12:39:22.411Z,98536.81
2023-01-19T12:42:03.467Z,98544.28
2023-01-19T12:44:36.803Z,98540.31
2023-01-19T12:47:15.676Z,98557.91
2023-01-19T12:49:56.474Z,98557.00
2023-01-19T12:52:23.043Z,98547.84
2023-01-19T12:55:15.193Z,98549.41
2023-01-19T12:58:03.981Z,98557.78
2023-01-19T13:00:32.343Z,98557.84
2023-01-19T13:03:03.853Z,98566.59
2023-01-19T13:05:33.482Z,98567.44
2023-01-19T13:08:03.282Z,98575.69
2023-01-19T13:11:06.981Z,98596.06
2023-01-19T13:13:37.926Z,98602.19
2023-01-19T13:16:22.443Z,98606.53
2023-01-19T13:18:54.393Z,98618.16
2023-01-19T13:21:46.116Z,98621.94
2023-01-19T13:24:17.452Z,98628.63
2023-01-19T13:26:49.965Z,98631.47
2023-01-19T13:29:36.019Z,98635.78
2023-01-19T13:32:11.880Z,98626.09
2023-01-19T13:34:50.297Z,98632.78
2023-01-19T13:37:22.597Z,98638.00
2023-01-19T13:39:54.887Z,98648.13
2023-01-19T13:42:30.370Z,98660.81
2023-01-19T13:44:58.942Z,98664.25
2023-01-19T13:47:37.090Z,98671.78
2023-01-19T13:50:04.288Z,98673.47
2023-01-19T13:52:31.260Z,98680.28
2023-01-19T13:55:02.783Z,98680.22
2023-01-19T13:57:40.135Z,98684.94
2023-01-19T14:00:11.775Z,98693.56
2023-01-19T14:02:39.506Z,98686.91
2023-01-19T14:05:23.551Z,98683.41
2023-01-19T14:08:03.893Z,98679.88
2023-01-19T14:10:31.348Z,98683.22
2023-01-19T14:13:00.160Z,98653.81
2023-01-19T14:15:30.554Z,98662.88
2023-01-19T14:18:18.671Z,98663.19
2023-01-19T14:20:55.964Z,98660.25
2023-01-19T14:23:40.880Z,98658.75
2023-01-19T14:26:39.702Z,98662.06
2023-01-19T14:29:21.578Z,98677.59
2023-01-19T14:32:04.662Z,98684.31
2023-01-19T14:34:38.836Z,98691.16
2023-01-19T14:37:24.965Z,98692.38
2023-01-19T14:40:15.897Z,98686.50
2023-01-19T14:42:42.512Z,98696.41
2023-01-19T14:45:35.336Z,98696.59
2023-01-19T14:48:04.918Z,98709.16
2023-01-19T14:50:41.485Z,98720.91
2023-01-19T14:53:16.934Z,98720.16
2023-01-19T14:55:47.923Z,98738.75
2023-01-19T14:58:19.571Z,98737.09
2023-01-19T15:00:47.472Z,98747.50
2023-01-19T15:03:14.779Z,98770.66
2023-01-19T15:05:44.096Z,98789.41
2023-01-19T15:08:23.209Z,98783.28
2023-01-19T15:10:49.814Z,98783.84
2023-01-19T15:13:20.528Z,98782.81
2023-01-19T15:15:50.431Z,98765.16
2023-01-19T15:18:21.762Z,98769.03
2023-01-19T15:20:50.803Z,98761.50
2023-01-19T15:23:17.365Z,98767.78
2023-01-19T15:25:46.204Z,98769.81
2023-01-19T15:28:23.217Z,98763.25
2023-01-19T15:30:53.983Z,98783.94
2023-01-19T15:33:25.645Z,98783.84
2023-01-19T15:35:55.159Z,98795.47
2023-01-19T15:38:22.457Z,98806.38
2023-01-19T15:40:51.418Z,98796.88
2023-01-19T15:43:18.518Z,98808.06
2023-01-19T15:46:00.725Z,98807.06
2023-01-19T15:48:27.309Z,98808.88
2023-01-19T15:50:53.830Z,98809.06
2023-01-19T15:53:24.075Z,98808.78
2023-01-19T15:55:56.798Z,98820.13
2023-01-19T15:58:26.689Z,98831.59
2023-01-19T16:00:57.960Z,98844.47
2023-01-19T16:03:27.172Z,98845.75
2023-01-19T16:05:53.781Z,98854.53
2023-01-19T16:08:22.168Z,98837.13
2023-01-19T16:10:48.902Z,98842.66
2023-01-19T16:40:30.539Z,98925.50
2023-01-19T16:42:57.967Z,98947.50
2023-01-19T16:45:24.565Z,98946.16
2023-01-19T16:47:53.670Z,98964.25
2023-01-19T16:50:20.208Z,98947.59
2023-01-19T16:52:46.801Z,98964.25
2023-01-19T16:55:13.375Z,98953.59
2023-01-19T16:57:40.038Z,98963.88
2023-01-19T17:00:10.397Z,98970.75
2023-01-19T17:02:39.633Z,98959.38
2023-01-19T17:05:12.403Z,98955.81
2023-01-19T17:07:39.099Z,98972.72
2023-01-19T17:10:09.150Z,98977.16
2023-01-19T17:12:38.429Z,98986.47
2023-01-19T17:15:07.768Z,98992.81
2023-01-19T17:17:36.263Z,98994.22
2023-01-19T17:20:05.061Z,98995.69
2023-01-19T17:22:31.617Z,99004.50
2023-01-19T17:24:58.133Z,99000.63
2023-01-19T17:27:24.713Z,99016.50
2023-01-19T17:29:51.392Z,99003.22
2023-01-19T17:32:20.059Z,99000.97
2023-01-19T17:34:49.335Z,99009.84
2023-01-19T17:37:21.146Z,99007.16
2023-01-19T17:39:52.451Z,99001.38
2023-01-19T17:42:19.140Z,99004.72
2023-01-19T17:44:45.839Z,98999.13
2023-01-19T17:47:14.692Z,98986.38
2023-01-19T17:49:43.517Z,99005.91
2023-01-19T17:52:12.438Z,99005.91
2023-01-19T17:54:41.292Z,99018.13
2023-01-19T17:57:12.834Z,99030.41
2023-01-19T17:59:43.849Z,99037.41
2023-01-19T18:02:10.666Z,99032.34
2023-01-19T18:04:38.704Z,99036.22
2023-01-19T18:07:05.483Z,99044.94
2023-01-19T18:09:32.112Z,99033.41
2023-01-19T18:12:01.005Z,99025.44
2023-01-19T18:14:29.747Z,99038.22
2023-01-19T18:16:56.286Z,99030.84
2023-01-19T18:19:23.233Z,99034.38
2023-01-19T18:21:50.948Z,99036.94
2023-01-19T18:24:22.139Z,99039.91
2023-01-19T18:26:48.913Z,99040.63
2023-01-19T18:29:16.726Z,99037.63
2023-01-19T18:31:45.604Z,99047.84
2023-01-19T18:34:16.879Z,99042.91
2023-01-19T18:36:46.822Z,99047.25
2023-01-19T18:39:15.874Z,99058.28
2023-01-19T18:41:42.444Z,99042.34
2023-01-19T18:44:10.133Z,99046.91
2023-01-19T18:46:37.882Z,99037.38
2023-01-19T18:49:05.502Z,99034.28
2023-01-19T18:51:32.554Z,99036.66
2023-01-19T18:54:03.672Z,99043.84
2023-01-19T18:56:34.799Z,99045.59
2023-01-19T18:59:01.995Z,99041.56
2023-01-19T19:01:32.859Z,99040.88
2023-01-19T19:03:59.939Z,99037.63
2023-01-19T19:06:29.631Z,99053.97
2023-01-19T19:09:00.000Z,99050.66
2023-01-19T19:11:27.211Z,99067.59
2023-01-19T19:13:58.826Z,99066.50
2023-01-19T19:16:25.748Z,99075.28
2023-01-19T19:18:55.824Z,99066.31
2023-01-19T19:21:25.361Z,99065.00
2023-01-19T19:23:57.266Z,99083.16
2023-01-19T19:26:25.017Z,99093.47
2023-01-19T19:28:51.959Z,99087.84
2023-01-19T19:31:22.740Z,99110.06
2023-01-19T19:33:52.018Z,99102.88
2023-01-19T19:36:20.150Z,99115.34
2023-01-19T19:38:49.686Z,99107.66
2023-01-19T19:41:22.797Z,99124.34
2023-01-19T19:43:49.658Z,99118.25
2023-01-19T19:46:20.353Z,99127.69
2023-01-19T19:48:48.509Z,99127.00
2023-01-19T19:51:22.627Z,99131.13
2023-01-19T19:53:51.762Z,99131.13
2023-01-19T19:56:22.784Z,99128.16
2023-01-19T19:58:51.030Z,99134.00
2023-01-19T20:01:23.997Z,99130.50
2023-01-19T20:03:51.839Z,99119.50
2023-01-19T20:06:22.946Z,99136.53
2023-01-19T20:08:51.443Z,99141.50
2023-01-19T20:11:26.001Z,99138.41
2023-01-19T20:13:53.103Z,99131.56
2023-01-19T20:16:24.217Z,99128.13
2023-01-19T20:18:54.111Z,99131.13
2023-01-19T20:21:31.729Z,99136.16
2023-01-19T20:24:08.759Z,99135.34
2023-01-19T20:26:39.215Z,99131.66
2023-01-19T20:29:11.120Z,99133.44
2023-01-19T20:31:50.861Z,99139.44
2023-01-19T20:34:25.193Z,99129.59
2023-01-19T20:36:53.926Z,99140.44
2023-01-19T20:39:22.802Z,99142.78
2023-01-19T20:41:55.086Z,99143.94
2023-01-19T20:44:23.840Z,99152.91
2023-01-19T20:46:54.098Z,99155.91
2023-01-19T20:49:21.225Z,99156.25
2023-01-19T20:51:51.978Z,99162.34
2023-01-19T20:54:20.921Z,99150.88
2023-01-19T20:56:49.765Z,99142.03
2023-01-19T20:59:17.234Z,99149.88
2023-01-19T21:01:49.844Z,99136.53
2023-01-19T21:04:17.355Z,99151.84
2023-01-19T21:06:46.160Z,99160.06
2023-01-19T21:09:12.756Z,99157.88
2023-01-19T21:11:42.092Z,99169.59
2023-01-19T21:14:10.870Z,99162.13
2023-01-19T21:16:40.220Z,99171.41
2023-01-19T21:19:11.958Z,99171.50
2023-01-19T21:21:38.562Z,99175.91
2023-01-19T21:24:08.089Z,99178.66
2023-01-19T21:26:37.802Z,99171.78
2023-01-19T21:29:07.488Z,99179.41
2023-01-19T21:31:34.111Z,99181.91
2023-01-19T21:34:05.440Z,99188.94
2023-01-19T21:36:32.442Z,99204.75
2023-01-19T21:39:00.889Z,99202.88
2023-01-19T21:41:30.538Z,99206.94
2023-01-19T21:43:58.449Z,99213.63
2023-01-19T21:46:33.080Z,99217.94
2023-01-19T21:49:05.835Z,99233.94
2023-01-19T21:51:35.063Z,99267.38
2023-01-19T21:54:05.620Z,99285.44
2023-01-19T21:56:35.205Z,99298.47
2023-01-19T21:59:04.643Z,99300.44
2023-01-19T22:01:35.095Z,99287.78
2023-01-19T22:04:01.863Z,99278.88
2023-01-19T22:06:30.981Z,99265.06
2023-01-19T22:08:58.440Z,99251.81
2023-01-19T22:11:25.086Z,99250.97
2023-01-19T22:13:59.537Z,99245.94
2023-01-19T22:16:29.462Z,99250.19
2023-01-19T22:19:02.911Z,99256.16
2023-01-19T22:21:35.843Z,99258.97
2023-01-19T22:24:05.659Z,99255.25
2023-01-19T22:26:35.400Z,99244.66
2023-01-19T22:29:03.916Z,99239.13
2023-01-19T22:31:31.362Z,99242.25
2023-01-19T22:34:00.368Z,99245.38
2023-01-19T22:36:29.784Z,99257.34
2023-01-19T22:38:57.350Z,99252.63
2023-01-19T22:41:34.035Z,99258.06
2023-01-19T22:44:05.565Z,99253.69
2023-01-19T22:46:36.379Z,99252.34
2023-01-19T22:49:09.904Z,99237.81
2023-01-19T22:51:36.751Z,99246.00
2023-01-19T22:54:04.473Z,99243.34
2023-01-19T22:56:34.802Z,99238.34
2023-01-19T22:59:07.123Z,99236.38
2023-01-19T23:01:37.572Z,99240.34
2023-01-19T23:04:07.985Z,99220.78
2023-01-19T23:06:37.105Z,99219.38
2023-01-19T23:09:06.742Z,99219.56
2023-01-19T23:11:38.296Z,99213.22
2023-01-19T23:14:07.361Z,99199.16
2023-01-19T23:16:35.097Z,99197.41
2023-01-19T23:19:02.016Z,99205.22
2023-01-19T23:21:33.090Z,99197.63
2023-01-19T23:24:02.464Z,99197.97
2023-01-19T23:26:30.850Z,99185.44
2023-01-19T23:29:01.560Z,99193.91
2023-01-19T23:31:30.753Z,99204.84
2023-01-19T23:33:59.859Z,99214.47
2023-01-19T23:36:28.920Z,99215.44
2023-01-19T23:38:59.969Z,99223.66
2023-01-19T23:41:30.521Z,99232.03
2023-01-19T23:43:57.194Z,99240.34
2023-01-19T23:46:26.635Z,99235.97
2023-01-19T23:48:58.062Z,99245.13
2023-01-19T23:51:29.367Z,99238.59
2023-01-19T23:53:56.909Z,99245.06
2023-01-19T23:56:27.906Z,99242.81
2023-01-19T23:59:02.250Z,99229.41
